sensor_id;sensor_type;location;lat;lon;timestamp;pressure;altitude;pressure_sealevel;temperature;humidity
61394;BME280;48555;50.952;-0.120;2024-01-15T00:01:05;100471.75;;;6.29;62.58
61394;BME280;48555;50.952;-0.120;2024-01-15T00:03:30;100473.63;;;6.27;62.21
61394;BME280;48555;50.952;-0.120;2024-01-15T00:05:55;100472.88;;;6.25;62.13
61394;BME280;48555;50.952;-0.120;2024-01-15T00:08:21;100472.81;;;6.27;62.09
61394;BME280;48555;50.952;-0.120;2024-01-15T00:10:46;100465.66;;;6.30;62.06
61394;BME280;48555;50.952;-0.120;2024-01-15T00:13:11;100469.03;;;6.32;62.09
61394;BME280;48555;50.952;-0.120;2024-01-15T00:15:37;100463.97;;;6.29;61.71
61394;BME280;48555;50.952;-0.120;2024-01-15T00:18:02;100470.56;;;6.35;61.99
61394;BME280;48555;50.952;-0.120;2024-01-15T00:20:28;100460.66;;;6.27;61.72
61394;BME280;48555;50.952;-0.120;2024-01-15T00:22:53;100470.63;;;6.19;61.81
61394;BME280;48555;50.952;-0.120;2024-01-15T00:25:18;100468.47;;;6.11;62.15
61394;BME280;48555;50.952;-0.120;2024-01-15T00:27:44;100456.47;;;5.95;62.43
61394;BME280;48555;50.952;-0.120;2024-01-15T00:30:09;100469.94;;;5.85;62.38
61394;BME280;48555;50.952;-0.120;2024-01-15T00:32:35;100470.44;;;5.76;62.44
61394;BME280;48555;50.952;-0.120;2024-01-15T00:35:00;100462.94;;;5.72;62.46
61394;BME280;48555;50.952;-0.120;2024-01-15T00:37:25;100464.94;;;5.66;62.70
61394;BME280;48555;50.952;-0.120;2024-01-15T00:39:51;100458.31;;;5.61;62.61
61394;BME280;48555;50.952;-0.120;2024-01-15T00:42:16;100462.28;;;5.52;62.87
61394;BME280;48555;50.952;-0.120;2024-01-15T00:44:42;100456.50;;;5.47;62.74
61394;BME280;48555;50.952;-0.120;2024-01-15T00:47:07;100468.78;;;5.43;62.90
61394;BME280;48555;50.952;-0.120;2024-01-15T00:49:33;100462.00;;;5.41;63.02
61394;BME280;48555;50.952;-0.120;2024-01-15T00:51:58;100453.56;;;5.37;62.94
61394;BME280;48555;50.952;-0.120;2024-01-15T00:54:23;100460.75;;;5.32;62.77
61394;BME280;48555;50.952;-0.120;2024-01-15T00:56:49;100459.53;;;5.23;63.25
61394;BME280;48555;50.952;-0.120;2024-01-15T00:59:14;100457.00;;;5.22;62.84
61394;BME280;48555;50.952;-0.120;2024-01-15T01:01:41;100448.56;;;5.18;62.70
61394;BME280;48555;50.952;-0.120;2024-01-15T01:04:09;100451.41;;;5.30;62.86
61394;BME280;48555;50.952;-0.120;2024-01-15T01:06:34;100459.75;;;5.35;62.45
61394;BME280;48555;50.952;-0.120;2024-01-15T01:09:00;100458.84;;;5.36;62.26
61394;BME280;48555;50.952;-0.120;2024-01-15T01:11:25;100457.16;;;5.35;62.38
61394;BME280;48555;50.952;-0.120;2024-01-15T01:13:50;100454.75;;;5.32;62.41
61394;BME280;48555;50.952;-0.120;2024-01-15T01:16:16;100462.28;;;5.36;62.10
61394;BME280;48555;50.952;-0.120;2024-01-15T01:18:41;100461.94;;;5.42;61.99
61394;BME280;48555;50.952;-0.120;2024-01-15T01:21:06;100461.69;;;5.47;61.80
61394;BME280;48555;50.952;-0.120;2024-01-15T01:23:32;100457.25;;;5.49;61.80
61394;BME280;48555;50.952;-0.120;2024-01-15T01:25:57;100452.91;;;5.50;61.60
61394;BME280;48555;50.952;-0.120;2024-01-15T01:28:22;100451.16;;;5.50;61.19
61394;BME280;48555;50.952;-0.120;2024-01-15T01:30:48;100450.22;;;5.51;61.37
61394;BME280;48555;50.952;-0.120;2024-01-15T01:33:13;100455.16;;;5.56;61.20
61394;BME280;48555;50.952;-0.120;2024-01-15T01:35:38;100453.75;;;5.50;61.05
61394;BME280;48555;50.952;-0.120;2024-01-15T01:38:04;100454.75;;;5.47;61.13
61394;BME280;48555;50.952;-0.120;2024-01-15T01:40:29;100450.47;;;5.46;60.92
61394;BME280;48555;50.952;-0.120;2024-01-15T01:42:55;100443.69;;;5.44;61.07
61394;BME280;48555;50.952;-0.120;2024-01-15T01:45:20;100443.03;;;5.40;61.02
61394;BME280;48555;50.952;-0.120;2024-01-15T01:47:45;100442.59;;;5.32;61.09
61394;BME280;48555;50.952;-0.120;2024-01-15T01:50:12;100446.13;;;5.31;61.14
61394;BME280;48555;50.952;-0.120;2024-01-15T01:52:38;100442.88;;;5.28;60.96
61394;BME280;48555;50.952;-0.120;2024-01-15T01:55:06;100443.09;;;5.23;61.14
61394;BME280;48555;50.952;-0.120;2024-01-15T01:57:32;100439.25;;;5.14;61.06
61394;BME280;48555;50.952;-0.120;2024-01-15T01:59:59;100441.44;;;5.06;61.43
61394;BME280;48555;50.952;-0.120;2024-01-15T02:02:25;100430.72;;;4.96;61.44
61394;BME280;48555;50.952;-0.120;2024-01-15T02:04:51;100426.47;;;4.95;61.38
61394;BME280;48555;50.952;-0.120;2024-01-15T02:07:16;100434.91;;;4.99;61.43
61394;BME280;48555;50.952;-0.120;2024-01-15T02:09:46;100429.88;;;4.96;61.21
61394;BME280;48555;50.952;-0.120;2024-01-15T02:12:12;100428.13;;;4.96;61.21
61394;BME280;48555;50.952;-0.120;2024-01-15T02:14:39;100418.09;;;4.90;61.26
61394;BME280;48555;50.952;-0.120;2024-01-15T02:17:04;100428.47;;;4.90;61.23
61394;BME280;48555;50.952;-0.120;2024-01-15T02:19:29;100430.22;;;4.90;61.23
61394;BME280;48555;50.952;-0.120;2024-01-15T02:21:55;100431.88;;;4.91;61.13
61394;BME280;48555;50.952;-0.120;2024-01-15T02:24:20;100425.03;;;4.90;61.19
61394;BME280;48555;50.952;-0.120;2024-01-15T02:26:46;100422.69;;;4.85;61.20
61394;BME280;48555;50.952;-0.120;2024-01-15T02:29:12;100418.25;;;4.87;61.37
61394;BME280;48555;50.952;-0.120;2024-01-15T02:31:38;100424.38;;;4.86;60.97
61394;BME280;48555;50.952;-0.120;2024-01-15T02:34:03;100426.97;;;4.86;61.17
61394;BME280;48555;50.952;-0.120;2024-01-15T02:36:28;100430.53;;;4.84;61.05
61394;BME280;48555;50.952;-0.120;2024-01-15T02:38:54;100425.59;;;4.79;60.90
61394;BME280;48555;50.952;-0.120;2024-01-15T02:41:19;100423.31;;;4.73;60.98
61394;BME280;48555;50.952;-0.120;2024-01-15T02:43:44;100418.63;;;4.64;61.02
61394;BME280;48555;50.952;-0.120;2024-01-15T02:46:10;100428.75;;;4.68;61.01
61394;BME280;48555;50.952;-0.120;2024-01-15T02:48:35;100432.41;;;4.64;61.15
61394;BME280;48555;50.952;-0.120;2024-01-15T02:51:01;100437.59;;;4.64;61.15
61394;BME280;48555;50.952;-0.120;2024-01-15T02:53:27;100434.25;;;4.62;61.23
61394;BME280;48555;50.952;-0.120;2024-01-15T02:55:52;100431.91;;;4.58;61.33
61394;BME280;48555;50.952;-0.120;2024-01-15T02:58:17;100428.69;;;4.52;61.26
61394;BME280;48555;50.952;-0.120;2024-01-15T03:00:43;100418.59;;;4.48;61.56
61394;BME280;48555;50.952;-0.120;2024-01-15T03:03:08;100412.59;;;4.47;61.40
61394;BME280;48555;50.952;-0.120;2024-01-15T03:05:34;100423.63;;;4.51;61.38
61394;BME280;48555;50.952;-0.120;2024-01-15T03:07:59;100421.94;;;4.50;61.43
61394;BME280;48555;50.952;-0.120;2024-01-15T03:10:25;100422.09;;;4.47;61.27
61394;BME280;48555;50.952;-0.120;2024-01-15T03:12:50;100417.16;;;4.42;61.49
61394;BME280;48555;50.952;-0.120;2024-01-15T03:15:15;100431.03;;;4.41;61.33
61394;BME280;48555;50.952;-0.120;2024-01-15T03:17:41;100429.19;;;4.43;61.65
61394;BME280;48555;50.952;-0.120;2024-01-15T03:20:08;100432.53;;;4.45;61.43
61394;BME280;48555;50.952;-0.120;2024-01-15T03:22:34;100428.97;;;4.48;61.71
61394;BME280;48555;50.952;-0.120;2024-01-15T03:24:59;100428.97;;;4.48;61.46
61394;BME280;48555;50.952;-0.120;2024-01-15T03:27:24;100431.44;;;4.49;61.22
61394;BME280;48555;50.952;-0.120;2024-01-15T03:29:51;100430.56;;;4.50;61.52
61394;BME280;48555;50.952;-0.120;2024-01-15T03:32:16;100425.38;;;4.50;61.42
61394;BME280;48555;50.952;-0.120;2024-01-15T03:34:42;100416.84;;;4.48;61.57
61394;BME280;48555;50.952;-0.120;2024-01-15T03:37:07;100428.97;;;4.48;61.67
61394;BME280;48555;50.952;-0.120;2024-01-15T03:39:33;100403.00;;;4.32;61.54
61394;BME280;48555;50.952;-0.120;2024-01-15T03:41:58;100428.03;;;4.49;61.70
61394;BME280;48555;50.952;-0.120;2024-01-15T03:44:23;100423.84;;;4.46;61.99
61394;BME280;48555;50.952;-0.120;2024-01-15T03:46:50;100427.19;;;4.48;61.96
61394;BME280;48555;50.952;-0.120;2024-01-15T03:49:15;100437.56;;;4.48;61.96
61394;BME280;48555;50.952;-0.120;2024-01-15T03:51:41;100429.84;;;4.47;61.83
61394;BME280;48555;50.952;-0.120;2024-01-15T03:54:06;100429.34;;;4.40;61.99
61394;BME280;48555;50.952;-0.120;2024-01-15T03:56:31;100429.59;;;4.36;62.09
61394;BME280;48555;50.952;-0.120;2024-01-15T03:58:57;100424.56;;;4.32;62.01
61394;BME280;48555;50.952;-0.120;2024-01-15T04:01:22;100422.03;;;4.31;62.23
61394;BME280;48555;50.952;-0.120;2024-01-15T04:03:47;100426.44;;;4.29;62.02
61394;BME280;48555;50.952;-0.120;2024-01-15T04:06:13;100418.78;;;4.27;62.20
61394;BME280;48555;50.952;-0.120;2024-01-15T04:08:38;100418.94;;;4.24;61.95
61394;BME280;48555;50.952;-0.120;2024-01-15T04:11:04;100419.78;;;4.25;62.19
61394;BME280;48555;50.952;-0.120;2024-01-15T04:13:32;100409.72;;;4.19;62.18
61394;BME280;48555;50.952;-0.120;2024-01-15T04:15:58;100420.69;;;4.24;62.04
61394;BME280;48555;50.952;-0.120;2024-01-15T04:18:23;100417.25;;;4.23;62.21
61394;BME280;48555;50.952;-0.120;2024-01-15T04:20:48;100409.88;;;4.16;62.22
61394;BME280;48555;50.952;-0.120;2024-01-15T04:23:14;100402.44;;;4.09;62.15
61394;BME280;48555;50.952;-0.120;2024-01-15T04:25:39;100400.88;;;4.05;62.26
61394;BME280;48555;50.952;-0.120;2024-01-15T04:28:08;100396.56;;;4.06;62.39
61394;BME280;48555;50.952;-0.120;2024-01-15T04:30:34;100400.16;;;4.03;62.25
61394;BME280;48555;50.952;-0.120;2024-01-15T04:32:59;100399.38;;;4.01;62.14
61394;BME280;48555;50.952;-0.120;2024-01-15T04:35:24;100393.59;;;3.96;62.49
61394;BME280;48555;50.952;-0.120;2024-01-15T04:37:50;100395.56;;;3.91;62.50
61394;BME280;48555;50.952;-0.120;2024-01-15T04:40:15;100389.66;;;3.89;62.39
61394;BME280;48555;50.952;-0.120;2024-01-15T04:42:41;100382.78;;;3.88;62.23
61394;BME280;48555;50.952;-0.120;2024-01-15T04:45:06;100386.13;;;3.90;62.29
61394;BME280;48555;50.952;-0.120;2024-01-15T04:47:32;100373.22;;;3.90;62.20
61394;BME280;48555;50.952;-0.120;2024-01-15T04:49:57;100378.38;;;3.90;62.18
61394;BME280;48555;50.952;-0.120;2024-01-15T04:52:22;100375.94;;;3.87;62.19
61394;BME280;48555;50.952;-0.120;2024-01-15T04:54:48;100377.25;;;3.78;62.52
61394;BME280;48555;50.952;-0.120;2024-01-15T04:57:14;100385.75;;;3.80;62.23
61394;BME280;48555;50.952;-0.120;2024-01-15T04:59:40;100376.47;;;3.76;62.39
61394;BME280;48555;50.952;-0.120;2024-01-15T05:02:05;100382.34;;;3.80;62.20
61394;BME280;48555;50.952;-0.120;2024-01-15T05:04:30;100385.16;;;3.75;62.15
61394;BME280;48555;50.952;-0.120;2024-01-15T05:06:56;100385.28;;;3.72;62.35
61394;BME280;48555;50.952;-0.120;2024-01-15T05:09:21;100386.38;;;3.68;62.66
61394;BME280;48555;50.952;-0.120;2024-01-15T05:11:47;100382.19;;;3.66;62.62
61394;BME280;48555;50.952;-0.120;2024-01-15T05:14:12;100382.94;;;3.68;62.84
61394;BME280;48555;50.952;-0.120;2024-01-15T05:16:55;100380.63;;;3.61;62.70
61394;BME280;48555;50.952;-0.120;2024-01-15T05:19:21;100383.47;;;3.57;63.06
61394;BME280;48555;50.952;-0.120;2024-01-15T05:21:46;100383.16;;;3.63;62.81
61394;BME280;48555;50.952;-0.120;2024-01-15T05:24:11;100384.63;;;3.69;62.97
61394;BME280;48555;50.952;-0.120;2024-01-15T05:26:37;100379.28;;;3.72;62.77
61394;BME280;48555;50.952;-0.120;2024-01-15T05:29:02;100380.66;;;3.79;62.83
61394;BME280;48555;50.952;-0.120;2024-01-15T05:31:28;100382.09;;;3.84;62.75
61394;BME280;48555;50.952;-0.120;2024-01-15T05:33:53;100368.28;;;3.85;62.56
61394;BME280;48555;50.952;-0.120;2024-01-15T05:36:18;100369.94;;;3.86;62.87
61394;BME280;48555;50.952;-0.120;2024-01-15T05:38:44;100369.63;;;3.93;62.75
61394;BME280;48555;50.952;-0.120;2024-01-15T05:41:09;100376.47;;;3.94;62.56
61394;BME280;48555;50.952;-0.120;2024-01-15T05:43:35;100376.47;;;3.94;62.80
61394;BME280;48555;50.952;-0.120;2024-01-15T05:46:00;100373.22;;;3.90;62.54
61394;BME280;48555;50.952;-0.120;2024-01-15T05:48:25;100383.41;;;3.93;62.56
61394;BME280;48555;50.952;-0.120;2024-01-15T05:50:51;100386.13;;;3.90;62.39
61394;BME280;48555;50.952;-0.120;2024-01-15T05:53:16;100380.97;;;3.90;62.70
61394;BME280;48555;50.952;-0.120;2024-01-15T05:55:41;100392.28;;;3.87;62.82
61394;BME280;48555;50.952;-0.120;2024-01-15T05:58:07;100393.22;;;3.86;62.66
61394;BME280;48555;50.952;-0.120;2024-01-15T06:00:32;100391.00;;;3.79;62.75
61394;BME280;48555;50.952;-0.120;2024-01-15T06:03:03;100398.91;;;3.76;62.71
61394;BME280;48555;50.952;-0.120;2024-01-15T06:05:28;100407.88;;;3.69;62.63
61394;BME280;48555;50.952;-0.120;2024-01-15T06:07:54;100403.91;;;3.61;62.87
61394;BME280;48555;50.952;-0.120;2024-01-15T06:10:19;100402.41;;;3.57;62.85
61394;BME280;48555;50.952;-0.120;2024-01-15T06:12:44;100398.44;;;3.50;62.93
61394;BME280;48555;50.952;-0.120;2024-01-15T06:15:10;100400.41;;;3.45;62.86
61394;BME280;48555;50.952;-0.120;2024-01-15T06:17:35;100398.94;;;3.39;62.96
61394;BME280;48555;50.952;-0.120;2024-01-15T06:20:01;100408.66;;;3.34;63.04
61394;BME280;48555;50.952;-0.120;2024-01-15T06:22:26;100408.78;;;3.31;63.10
61394;BME280;48555;50.952;-0.120;2024-01-15T06:24:52;100415.88;;;3.28;63.25
61394;BME280;48555;50.952;-0.120;2024-01-15T06:27:17;100409.03;;;3.27;63.25
61394;BME280;48555;50.952;-0.120;2024-01-15T06:29:45;100407.19;;;3.29;63.23
61394;BME280;48555;50.952;-0.120;2024-01-15T06:32:12;100406.66;;;3.22;63.34
61394;BME280;48555;50.952;-0.120;2024-01-15T06:34:37;100400.09;;;3.15;63.42
61394;BME280;48555;50.952;-0.120;2024-01-15T06:37:03;100413.63;;;3.20;63.25
61394;BME280;48555;50.952;-0.120;2024-01-15T06:39:28;100414.53;;;3.19;63.37
61394;BME280;48555;50.952;-0.120;2024-01-15T06:41:53;100417.19;;;3.17;63.44
61394;BME280;48555;50.952;-0.120;2024-01-15T06:44:19;100420.78;;;3.15;63.07
61394;BME280;48555;50.952;-0.120;2024-01-15T06:46:46;100410.59;;;3.12;63.03
61394;BME280;48555;50.952;-0.120;2024-01-15T06:49:12;100409.94;;;3.07;63.03
61394;BME280;48555;50.952;-0.120;2024-01-15T06:51:37;100423.56;;;3.10;62.96
61394;BME280;48555;50.952;-0.120;2024-01-15T06:54:03;100424.66;;;3.05;62.97
61394;BME280;48555;50.952;-0.120;2024-01-15T06:56:28;100441.78;;;3.07;62.84
61394;BME280;48555;50.952;-0.120;2024-01-15T06:58:54;100434.84;;;3.08;62.78
61394;BME280;48555;50.952;-0.120;2024-01-15T07:01:19;100431.44;;;3.07;62.84
61394;BME280;48555;50.952;-0.120;2024-01-15T07:03:45;100417.88;;;3.02;63.04
61394;BME280;48555;50.952;-0.120;2024-01-15T07:06:11;100425.50;;;3.05;62.59
61394;BME280;48555;50.952;-0.120;2024-01-15T07:08:37;100429.78;;;3.06;62.95
61394;BME280;48555;50.952;-0.120;2024-01-15T07:11:04;100426.47;;;3.03;62.95
61394;BME280;48555;50.952;-0.120;2024-01-15T07:13:29;100427.88;;;3.10;63.19
61394;BME280;48555;50.952;-0.120;2024-01-15T07:15:55;100425.94;;;3.15;62.89
61394;BME280;48555;50.952;-0.120;2024-01-15T07:18:20;100427.38;;;3.21;62.74
61394;BME280;48555;50.952;-0.120;2024-01-15T07:20:46;100433.59;;;3.16;63.14
61394;BME280;48555;50.952;-0.120;2024-01-15T07:23:11;100432.00;;;3.14;63.04
61394;BME280;48555;50.952;-0.120;2024-01-15T07:25:37;100433.09;;;3.08;63.32
61394;BME280;48555;50.952;-0.120;2024-01-15T07:28:02;100435.09;;;3.03;63.39
61394;BME280;48555;50.952;-0.120;2024-01-15T07:30:28;100437.16;;;2.95;63.60
61394;BME280;48555;50.952;-0.120;2024-01-15T07:32:54;100440.09;;;2.87;63.76
61394;BME280;48555;50.952;-0.120;2024-01-15T07:35:19;100443.63;;;2.85;63.77
61394;BME280;48555;50.952;-0.120;2024-01-15T07:37:45;100443.63;;;2.85;63.69
61394;BME280;48555;50.952;-0.120;2024-01-15T07:40:11;100442.94;;;2.81;63.74
61394;BME280;48555;50.952;-0.120;2024-01-15T07:42:37;100453.09;;;2.86;63.66
61394;BME280;48555;50.952;-0.120;2024-01-15T07:45:03;100462.50;;;2.87;63.43
61394;BME280;48555;50.952;-0.120;2024-01-15T07:47:29;100466.69;;;2.89;63.35
61394;BME280;48555;50.952;-0.120;2024-01-15T07:49:54;100470.09;;;2.90;63.51
61394;BME280;48555;50.952;-0.120;2024-01-15T07:52:20;100468.34;;;2.90;63.30
61394;BME280;48555;50.952;-0.120;2024-01-15T07:54:46;100468.03;;;2.98;63.40
61394;BME280;48555;50.952;-0.120;2024-01-15T07:57:13;100455.88;;;3.00;62.89
61394;BME280;48555;50.952;-0.120;2024-01-15T07:59:38;100468.31;;;3.11;62.87
61394;BME280;48555;50.952;-0.120;2024-01-15T08:02:05;100465.38;;;3.18;62.89
61394;BME280;48555;50.952;-0.120;2024-01-15T08:04:30;100477.19;;;3.24;62.99
61394;BME280;48555;50.952;-0.120;2024-01-15T08:06:56;100484.72;;;3.29;63.07
61394;BME280;48555;50.952;-0.120;2024-01-15T08:09:22;100474.25;;;3.32;63.24
61394;BME280;48555;50.952;-0.120;2024-01-15T08:11:47;100476.47;;;3.39;63.02
61394;BME280;48555;50.952;-0.120;2024-01-15T08:14:14;100472.16;;;3.59;63.26
61394;BME280;48555;50.952;-0.120;2024-01-15T08:16:40;100474.59;;;3.79;62.83
61394;BME280;48555;50.952;-0.120;2024-01-15T08:19:05;100470.31;;;3.97;63.00
61394;BME280;48555;50.952;-0.120;2024-01-15T08:21:31;100491.56;;;4.39;62.97
61394;BME280;48555;50.952;-0.120;2024-01-15T08:24:00;100486.31;;;4.73;63.29
61394;BME280;48555;50.952;-0.120;2024-01-15T08:26:26;100480.31;;;5.06;63.33
61394;BME280;48555;50.952;-0.120;2024-01-15T08:28:51;100482.59;;;5.44;62.88
61394;BME280;48555;50.952;-0.120;2024-01-15T08:31:17;100493.72;;;5.78;62.51
61394;BME280;48555;50.952;-0.120;2024-01-15T08:33:43;100491.09;;;6.09;62.30
61394;BME280;48555;50.952;-0.120;2024-01-15T08:36:09;100499.91;;;6.37;61.75
61394;BME280;48555;50.952;-0.120;2024-01-15T08:38:35;100493.06;;;6.65;61.38
61394;BME280;48555;50.952;-0.120;2024-01-15T08:41:01;100488.09;;;6.90;61.03
61394;BME280;48555;50.952;-0.120;2024-01-15T08:43:26;100491.91;;;7.13;60.43
61394;BME280;48555;50.952;-0.120;2024-01-15T08:45:52;100491.59;;;7.32;59.88
61394;BME280;48555;50.952;-0.120;2024-01-15T08:48:17;100492.22;;;7.50;59.26
61394;BME280;48555;50.952;-0.120;2024-01-15T08:50:43;100492.28;;;7.63;58.79
61394;BME280;48555;50.952;-0.120;2024-01-15T08:53:11;100499.31;;;7.75;58.29
61394;BME280;48555;50.952;-0.120;2024-01-15T08:55:37;100504.47;;;7.89;58.12
61394;BME280;48555;50.952;-0.120;2024-01-15T08:58:03;100495.31;;;7.96;57.50
61394;BME280;48555;50.952;-0.120;2024-01-15T09:00:28;100509.50;;;8.05;57.23
61394;BME280;48555;50.952;-0.120;2024-01-15T09:02:55;100504.66;;;8.13;57.14
61394;BME280;48555;50.952;-0.120;2024-01-15T09:05:21;100504.25;;;8.19;56.94
61394;BME280;48555;50.952;-0.120;2024-01-15T09:07:46;100509.16;;;8.24;56.46
61394;BME280;48555;50.952;-0.120;2024-01-15T09:10:11;100511.31;;;8.17;56.18
61394;BME280;48555;50.952;-0.120;2024-01-15T09:12:37;100519.53;;;8.11;56.13
61394;BME280;48555;50.952;-0.120;2024-01-15T09:15:04;100524.50;;;8.02;56.47
61394;BME280;48555;50.952;-0.120;2024-01-15T09:17:31;100530.09;;;7.95;56.96
61394;BME280;48555;50.952;-0.120;2024-01-15T09:19:56;100527.25;;;7.86;56.74
61394;BME280;48555;50.952;-0.120;2024-01-15T09:22:21;100528.88;;;7.74;57.02
61394;BME280;48555;50.952;-0.120;2024-01-15T09:24:47;100527.22;;;7.59;57.36
61394;BME280;48555;50.952;-0.120;2024-01-15T09:27:13;100521.13;;;7.45;57.10
61394;BME280;48555;50.952;-0.120;2024-01-15T09:29:38;100519.94;;;7.37;57.42
61394;BME280;48555;50.952;-0.120;2024-01-15T09:32:05;100524.88;;;7.27;57.74
61394;BME280;48555;50.952;-0.120;2024-01-15T09:34:33;100523.94;;;7.14;57.45
61394;BME280;48555;50.952;-0.120;2024-01-15T09:36:59;100522.72;;;7.05;57.71
61394;BME280;48555;50.952;-0.120;2024-01-15T09:39:25;100519.94;;;6.94;57.38
61394;BME280;48555;50.952;-0.120;2024-01-15T09:41:52;100524.84;;;6.84;57.23
61394;BME280;48555;50.952;-0.120;2024-01-15T09:44:18;100531.78;;;6.69;57.17
61394;BME280;48555;50.952;-0.120;2024-01-15T09:46:44;100539.38;;;6.58;57.07
61394;BME280;48555;50.952;-0.120;2024-01-15T09:49:10;100540.25;;;6.43;57.03
61394;BME280;48555;50.952;-0.120;2024-01-15T09:51:37;100555.38;;;6.20;56.87
61394;BME280;48555;50.952;-0.120;2024-01-15T09:54:04;100556.69;;;5.97;57.18
61394;BME280;48555;50.952;-0.120;2024-01-15T09:56:30;100553.88;;;5.84;57.48
61394;BME280;48555;50.952;-0.120;2024-01-15T09:58:56;100558.00;;;5.73;57.46
61394;BME280;48555;50.952;-0.120;2024-01-15T10:01:22;100553.41;;;5.62;57.74
61394;BME280;48555;50.952;-0.120;2024-01-15T10:03:48;100557.41;;;5.52;57.66
61394;BME280;48555;50.952;-0.120;2024-01-15T10:06:16;100556.78;;;5.46;58.02
61394;BME280;48555;50.952;-0.120;2024-01-15T10:08:50;100569.09;;;5.43;57.98
61394;BME280;48555;50.952;-0.120;2024-01-15T10:11:16;100566.16;;;5.33;58.30
61394;BME280;48555;50.952;-0.120;2024-01-15T10:13:48;100574.25;;;5.27;58.44
61394;BME280;48555;50.952;-0.120;2024-01-15T10:16:21;100569.41;;;5.21;58.45
61394;BME280;48555;50.952;-0.120;2024-01-15T10:18:47;100554.94;;;4.99;58.64
61394;BME280;48555;50.952;-0.120;2024-01-15T10:21:13;100575.72;;;5.15;58.97
61394;BME280;48555;50.952;-0.120;2024-01-15T10:23:39;100578.91;;;5.20;58.86
61394;BME280;48555;50.952;-0.120;2024-01-15T10:26:04;100579.59;;;5.24;58.92
61394;BME280;48555;50.952;-0.120;2024-01-15T10:28:30;100580.75;;;5.18;59.10
61394;BME280;48555;50.952;-0.120;2024-01-15T10:30:58;100577.34;;;5.18;59.04
61394;BME280;48555;50.952;-0.120;2024-01-15T10:33:27;100583.06;;;5.07;58.72
61394;BME280;48555;50.952;-0.120;2024-01-15T10:35:57;100579.19;;;4.98;59.10
61394;BME280;48555;50.952;-0.120;2024-01-15T10:38:24;100588.72;;;4.98;59.31
61394;BME280;48555;50.952;-0.120;2024-01-15T10:40:53;100598.63;;;5.07;58.87
61394;BME280;48555;50.952;-0.120;2024-01-15T10:43:19;100601.53;;;5.01;58.38
61394;BME280;48555;50.952;-0.120;2024-01-15T10:45:46;100596.69;;;5.11;58.49
61394;BME280;48555;50.952;-0.120;2024-01-15T10:48:12;100597.97;;;5.19;58.59
61394;BME280;48555;50.952;-0.120;2024-01-15T10:50:37;100587.31;;;5.08;57.84
61394;BME280;48555;50.952;-0.120;2024-01-15T10:53:03;100594.25;;;5.08;57.83
61394;BME280;48555;50.952;-0.120;2024-01-15T10:55:30;100593.75;;;5.01;57.96
61394;BME280;48555;50.952;-0.120;2024-01-15T10:57:57;100587.72;;;5.00;57.37
61394;BME280;48555;50.952;-0.120;2024-01-15T11:00:23;100584.06;;;5.05;57.07
61394;BME280;48555;50.952;-0.120;2024-01-15T11:02:50;100580.31;;;5.10;56.92
61394;BME280;48555;50.952;-0.120;2024-01-15T11:05:20;100588.91;;;5.11;56.54
61394;BME280;48555;50.952;-0.120;2024-01-15T11:07:50;100583.91;;;4.90;55.98
61394;BME280;48555;50.952;-0.120;2024-01-15T11:10:42;100575.00;;;4.96;55.92
61394;BME280;48555;50.952;-0.120;2024-01-15T11:13:09;100572.81;;;4.88;55.63
61394;BME280;48555;50.952;-0.120;2024-01-15T11:15:57;100571.88;;;4.89;55.45
61394;BME280;48555;50.952;-0.120;2024-01-15T11:18:23;100570.66;;;4.96;55.03
61394;BME280;48555;50.952;-0.120;2024-01-15T11:23:49;100569.34;;;4.88;54.29
61394;BME280;48555;50.952;-0.120;2024-01-15T11:26:37;100565.78;;;4.90;54.27
61394;BME280;48555;50.952;-0.120;2024-01-15T11:32:06;100562.59;;;4.50;54.44
61394;BME280;48555;50.952;-0.120;2024-01-15T11:34:57;100549.25;;;4.58;53.39
61394;BME280;48555;50.952;-0.120;2024-01-15T11:37:24;100550.72;;;4.64;54.09
61394;BME280;48555;50.952;-0.120;2024-01-15T11:40:01;100536.09;;;4.63;53.70
61394;BME280;48555;50.952;-0.120;2024-01-15T11:42:29;100554.97;;;4.82;53.15
61394;BME280;48555;50.952;-0.120;2024-01-15T11:44:55;100549.34;;;4.74;53.58
61394;BME280;48555;50.952;-0.120;2024-01-15T11:47:40;100558.41;;;4.83;53.77
61394;BME280;48555;50.952;-0.120;2024-01-15T11:50:11;100568.38;;;4.73;52.45
61394;BME280;48555;50.952;-0.120;2024-01-15T11:52:38;100564.81;;;4.58;51.81
61394;BME280;48555;50.952;-0.120;2024-01-15T11:55:35;100577.16;;;4.53;51.73
61394;BME280;48555;50.952;-0.120;2024-01-15T11:58:02;100570.81;;;4.59;53.01
61394;BME280;48555;50.952;-0.120;2024-01-15T12:00:28;100575.84;;;4.62;52.26
61394;BME280;48555;50.952;-0.120;2024-01-15T12:02:54;100565.03;;;4.53;51.56
61394;BME280;48555;50.952;-0.120;2024-01-15T12:05:20;100585.19;;;4.47;51.08
61394;BME280;48555;50.952;-0.120;2024-01-15T12:07:49;100561.84;;;4.48;50.69
61394;BME280;48555;50.952;-0.120;2024-01-15T12:10:20;100574.56;;;4.53;50.84
61394;BME280;48555;50.952;-0.120;2024-01-15T12:13:00;100570.13;;;4.72;50.77
61394;BME280;48555;50.952;-0.120;2024-01-15T12:15:29;100575.25;;;4.74;49.96
61394;BME280;48555;50.952;-0.120;2024-01-15T12:17:56;100575.41;;;4.71;50.66
61394;BME280;48555;50.952;-0.120;2024-01-15T12:20:26;100562.81;;;4.63;50.74
61394;BME280;48555;50.952;-0.120;2024-01-15T12:22:51;100576.59;;;4.81;51.06
61394;BME280;48555;50.952;-0.120;2024-01-15T12:25:17;100578.34;;;4.98;50.68
61394;BME280;48555;50.952;-0.120;2024-01-15T12:27:42;100582.91;;;5.10;50.38
61394;BME280;48555;50.952;-0.120;2024-01-15T12:30:13;100580.38;;;5.09;49.24
61394;BME280;48555;50.952;-0.120;2024-01-15T12:32:41;100590.69;;;5.10;49.40
61394;BME280;48555;50.952;-0.120;2024-01-15T12:35:07;100589.75;;;5.11;48.75
61394;BME280;48555;50.952;-0.120;2024-01-15T12:37:35;100594.50;;;5.03;49.38
61394;BME280;48555;50.952;-0.120;2024-01-15T12:40:02;100589.56;;;4.98;49.94
61394;BME280;48555;50.952;-0.120;2024-01-15T12:42:28;100572.50;;;4.94;50.40
61394;BME280;48555;50.952;-0.120;2024-01-15T12:44:56;100577.38;;;5.00;48.77
61394;BME280;48555;50.952;-0.120;2024-01-15T12:47:21;100576.44;;;4.84;48.06
61394;BME280;48555;50.952;-0.120;2024-01-15T12:49:47;100586.13;;;4.98;48.51
61394;BME280;48555;50.952;-0.120;2024-01-15T12:52:19;100581.25;;;4.92;48.58